createdAt,value
2023-02-08T00:00:27.853Z,7.43
2023-02-08T00:03:19.158Z,7.53
2023-02-08T00:05:47.010Z,6.87
2023-02-08T00:08:14.854Z,6.80
2023-02-08T00:10:45.875Z,6.43
2023-02-08T00:13:28.613Z,7.87
2023-02-08T00:16:03.171Z,7.00
2023-02-08T00:18:34.193Z,6.20
2023-02-08T00:21:02.004Z,6.57
2023-02-08T00:23:33.784Z,6.93
2023-02-08T00:26:04.195Z,6.27
2023-02-08T00:28:36.020Z,8.17
2023-02-08T00:31:06.653Z,5.90
2023-02-08T00:33:34.934Z,7.30
2023-02-08T00:36:10.179Z,5.33
2023-02-08T00:38:47.438Z,6.67
2023-02-08T00:41:17.839Z,6.53
2023-02-08T00:43:48.647Z,7.30
2023-02-08T00:46:17.954Z,7.57
2023-02-08T00:48:51.577Z,7.00
2023-02-08T00:51:23.411Z,6.80
2023-02-08T00:53:51.257Z,5.90
2023-02-08T00:56:19.087Z,7.20
2023-02-08T00:58:49.039Z,6.70
2023-02-08T01:01:18.349Z,5.33
2023-02-08T01:03:52.237Z,5.67
2023-02-08T01:06:21.978Z,6.80
2023-02-08T01:08:50.294Z,5.87
2023-02-08T01:11:22.270Z,7.40
2023-02-08T01:13:50.534Z,6.20
2023-02-08T01:16:21.214Z,7.57
2023-02-08T01:18:51.031Z,5.70
2023-02-08T01:21:25.768Z,5.47
2023-02-08T01:23:56.990Z,6.10
2023-02-08T01:26:26.194Z,6.67
2023-02-08T01:28:55.540Z,6.53
2023-02-08T01:31:27.983Z,7.37
2023-02-08T01:33:56.440Z,7.43
2023-02-08T01:36:30.200Z,6.27
2023-02-08T01:38:58.368Z,6.60
2023-02-08T01:41:28.089Z,6.37
2023-02-08T01:44:11.023Z,5.93
2023-02-08T01:46:48.032Z,5.93
2023-02-08T01:49:19.643Z,6.03
2023-02-08T01:51:51.194Z,7.63
2023-02-08T01:54:21.718Z,7.60
2023-02-08T01:56:50.985Z,7.20
2023-02-08T01:59:26.456Z,7.03
2023-02-08T02:01:58.096Z,6.53
2023-02-08T02:04:26.863Z,6.57
2023-02-08T02:07:00.337Z,7.27
2023-02-08T02:09:55.662Z,7.00
2023-02-08T02:12:23.909Z,6.37
2023-02-08T02:15:07.145Z,6.10
2023-02-08T02:17:39.522Z,7.50
2023-02-08T02:20:12.050Z,5.60
2023-02-08T02:23:27.846Z,6.30
2023-02-08T02:26:32.478Z,5.77
2023-02-08T02:29:29.735Z,6.57
2023-02-08T02:32:11.405Z,5.83
2023-02-08T02:34:51.667Z,5.97
2023-02-08T02:37:32.408Z,5.80
2023-02-08T02:40:07.309Z,6.63
2023-02-08T02:43:07.208Z,6.67
2023-02-08T02:45:38.005Z,6.23
2023-02-08T02:48:13.257Z,7.93
2023-02-08T02:50:45.930Z,5.43
2023-02-08T02:53:19.688Z,8.07
2023-02-08T02:55:55.537Z,8.27
2023-02-08T02:58:26.982Z,7.73
2023-02-08T03:01:00.951Z,9.10
2023-02-08T03:03:36.242Z,6.33
2023-02-08T03:06:10.959Z,6.97
2023-02-08T03:09:06.122Z,7.60
2023-02-08T03:11:36.722Z,7.20
2023-02-08T03:14:18.114Z,6.03
2023-02-08T03:17:01.785Z,6.40
2023-02-08T03:19:36.981Z,7.87
2023-02-08T03:22:13.449Z,6.67
2023-02-08T03:24:48.111Z,7.57
2023-02-08T03:27:23.637Z,7.03
2023-02-08T03:30:08.007Z,7.27
2023-02-08T03:32:42.972Z,6.73
2023-02-08T03:35:18.260Z,6.57
2023-02-08T03:37:50.824Z,7.50
2023-02-08T03:40:26.924Z,6.17
2023-02-08T03:43:04.708Z,6.57
2023-02-08T03:45:34.863Z,6.43
2023-02-08T03:48:06.065Z,6.63
2023-02-08T03:50:39.145Z,5.43
2023-02-08T03:53:08.441Z,6.60
2023-02-08T03:55:39.126Z,6.33
2023-02-08T03:58:15.019Z,7.33
2023-02-08T04:00:45.704Z,8.23
2023-02-08T04:03:21.518Z,6.50
2023-02-08T04:06:07.274Z,7.20
2023-02-08T04:08:38.658Z,7.30
2023-02-08T04:11:08.938Z,8.37
2023-02-08T04:13:39.527Z,7.40
2023-02-08T04:16:11.290Z,6.83
2023-02-08T04:18:44.468Z,7.23
2023-02-08T04:21:13.924Z,6.30
2023-02-08T04:23:41.733Z,6.70
2023-02-08T04:26:12.473Z,6.20
2023-02-08T04:28:40.672Z,8.07
2023-02-08T04:31:10.369Z,7.40
2023-02-08T04:33:38.333Z,7.50
2023-02-08T04:36:08.942Z,7.67
2023-02-08T04:38:38.238Z,6.90
2023-02-08T04:41:09.125Z,7.20
2023-02-08T04:43:39.328Z,6.07
2023-02-08T04:46:09.532Z,7.27
2023-02-08T04:48:38.726Z,7.97
2023-02-08T04:51:06.905Z,8.23
2023-02-08T04:53:35.709Z,7.90
2023-02-08T04:56:15.693Z,5.70
2023-02-08T04:58:45.600Z,6.50
2023-02-08T05:01:17.470Z,7.47
2023-02-08T05:03:45.478Z,7.93
2023-02-08T05:06:20.364Z,6.97
2023-02-08T05:08:48.206Z,6.90
2023-02-08T05:11:24.909Z,6.70
2023-02-08T05:13:53.723Z,5.93
2023-02-08T05:16:26.517Z,8.23
2023-02-08T05:18:54.710Z,8.37
2023-02-08T05:21:24.650Z,6.40
2023-02-08T05:23:54.673Z,7.63
2023-02-08T05:26:23.967Z,5.83
2023-02-08T05:28:52.154Z,6.30
2023-02-08T05:31:22.037Z,6.70
2023-02-08T05:33:50.227Z,6.03
2023-02-08T05:36:18.517Z,6.13
2023-02-08T05:38:46.575Z,6.90
2023-02-08T05:41:14.413Z,6.77
2023-02-08T05:43:47.647Z,6.43
2023-02-08T05:46:15.653Z,6.70
2023-02-08T05:48:46.326Z,7.17
2023-02-08T05:51:14.290Z,6.27
2023-02-08T05:53:43.546Z,7.10
2023-02-08T05:56:15.103Z,8.80
2023-02-08T05:58:45.488Z,7.53
2023-02-08T06:01:14.668Z,6.27
2023-02-08T06:03:43.830Z,7.30
2023-02-08T06:06:14.424Z,7.00
2023-02-08T06:08:42.418Z,7.87
2023-02-08T06:11:13.318Z,6.43
2023-02-08T06:13:46.106Z,7.20
2023-02-08T06:16:14.506Z,7.00
2023-02-08T06:18:42.426Z,6.73
2023-02-08T06:21:10.660Z,8.00
2023-02-08T06:23:38.544Z,7.53
2023-02-08T06:26:06.748Z,8.47
2023-02-08T06:28:34.555Z,6.70
2023-02-08T06:31:05.618Z,7.17
2023-02-08T06:33:33.601Z,6.07
2023-02-08T06:36:04.003Z,7.23
2023-02-08T06:38:31.792Z,8.13
2023-02-08T06:41:01.799Z,7.77
2023-02-08T06:43:32.780Z,8.50
2023-02-08T06:46:04.989Z,7.93
2023-02-08T06:48:36.081Z,7.93
2023-02-08T06:51:04.105Z,7.47
2023-02-08T06:53:34.328Z,8.27
2023-02-08T06:56:02.198Z,8.23
2023-02-08T06:58:30.216Z,8.70
2023-02-08T07:01:01.941Z,7.20
2023-02-08T07:03:29.761Z,7.67
2023-02-08T07:06:05.229Z,10.50
2023-02-08T07:08:36.288Z,6.40
2023-02-08T07:11:10.742Z,9.10
2023-02-08T07:13:41.365Z,7.10
2023-02-08T07:16:11.013Z,7.93
2023-02-08T07:18:44.960Z,7.23
2023-02-08T07:21:14.233Z,8.97
2023-02-08T07:23:43.016Z,7.10
2023-02-08T07:26:17.538Z,7.13
2023-02-08T07:28:48.028Z,8.03
2023-02-08T07:31:18.096Z,7.50
2023-02-08T07:33:50.737Z,7.43
2023-02-08T07:36:20.153Z,9.97
2023-02-08T07:38:51.184Z,7.00
2023-02-08T07:41:21.688Z,7.37
2023-02-08T07:43:52.984Z,7.00
2023-02-08T07:46:24.773Z,8.10
2023-02-08T07:48:53.535Z,7.97
2023-02-08T07:51:25.352Z,7.00
2023-02-08T07:53:55.368Z,7.03
2023-02-08T07:56:32.829Z,6.13
2023-02-08T07:59:00.769Z,7.50
2023-02-08T08:01:29.600Z,7.37
2023-02-08T08:04:02.225Z,6.87
2023-02-08T08:06:31.827Z,6.60
2023-02-08T08:09:05.714Z,7.13
2023-02-08T08:11:33.655Z,7.60
2023-02-08T08:14:01.550Z,7.90
2023-02-08T08:16:29.854Z,8.20
2023-02-08T08:18:59.444Z,7.60
2023-02-08T08:21:31.749Z,6.90
2023-02-08T08:23:59.645Z,7.50
2023-02-08T08:26:35.317Z,7.00
2023-02-08T08:29:03.380Z,7.83
2023-02-08T08:31:31.990Z,6.57
2023-02-08T08:34:00.372Z,6.77
2023-02-08T08:36:31.109Z,7.40
2023-02-08T08:39:02.862Z,8.40
2023-02-08T08:41:35.937Z,7.43
2023-02-08T08:44:06.925Z,8.23
2023-02-08T08:46:35.133Z,7.37
2023-02-08T08:49:07.756Z,7.77
2023-02-08T08:51:36.311Z,5.13
2023-02-08T08:54:16.617Z,9.40
2023-02-08T08:56:47.121Z,8.40
2023-02-08T08:59:15.384Z,7.33
2023-02-08T09:01:43.345Z,6.13
2023-02-08T09:04:11.904Z,8.70
2023-02-08T09:06:40.028Z,6.93
2023-02-08T09:09:18.647Z,6.40
2023-02-08T09:11:46.689Z,7.00
2023-02-08T09:14:17.784Z,7.30
2023-02-08T09:16:51.057Z,5.77
2023-02-08T09:19:19.920Z,7.27
2023-02-08T09:21:47.896Z,7.10
2023-02-08T09:24:22.984Z,8.40
2023-02-08T09:26:55.771Z,8.50
2023-02-08T09:29:30.335Z,8.10
2023-02-08T09:31:58.632Z,6.60
2023-02-08T09:34:28.428Z,7.67
2023-02-08T09:36:56.367Z,7.80
2023-02-08T09:39:26.907Z,7.27
2023-02-08T09:42:10.705Z,8.27
2023-02-08T09:44:46.914Z,7.23
2023-02-08T09:47:20.060Z,9.27
2023-02-08T09:49:57.493Z,8.63
2023-02-08T09:52:33.458Z,8.20
2023-02-08T09:55:05.997Z,7.50
2023-02-08T09:57:36.285Z,7.10
2023-02-08T10:00:08.643Z,7.40
2023-02-08T10:02:36.606Z,9.73
2023-02-08T10:05:11.012Z,8.13
2023-02-08T10:07:43.849Z,7.70
2023-02-08T10:10:19.752Z,6.67
2023-02-08T10:12:57.579Z,7.13
2023-02-08T10:15:34.856Z,8.03
2023-02-08T10:18:44.077Z,8.40
2023-02-08T10:21:25.370Z,6.50
2023-02-08T10:24:23.013Z,8.40
2023-02-08T10:26:57.097Z,7.37
2023-02-08T10:29:53.263Z,7.80
2023-02-08T10:32:29.250Z,7.53
2023-02-08T10:35:04.614Z,7.83
2023-02-08T10:37:36.738Z,9.87
2023-02-08T10:40:18.283Z,8.77
2023-02-08T10:42:50.524Z,7.43
2023-02-08T10:45:24.933Z,8.50
2023-02-08T10:47:55.641Z,7.40
2023-02-08T10:50:30.075Z,9.03
2023-02-08T10:52:58.212Z,7.07
2023-02-08T10:55:36.480Z,8.10
2023-02-08T10:58:10.107Z,9.27
2023-02-08T11:00:41.317Z,8.93
2023-02-08T11:03:16.766Z,8.37
2023-02-08T11:05:45.753Z,9.40
2023-02-08T11:08:15.979Z,9.20
2023-02-08T11:10:46.938Z,8.87
2023-02-08T11:13:22.231Z,8.50
2023-02-08T11:15:53.956Z,7.13
2023-02-08T11:18:28.010Z,9.50
2023-02-08T11:21:01.673Z,8.37
2023-02-08T11:23:34.388Z,8.80
2023-02-08T11:26:18.227Z,8.80
2023-02-08T11:29:13.356Z,9.57
2023-02-08T11:31:50.555Z,9.00
2023-02-08T11:34:33.072Z,8.03
2023-02-08T11:37:10.591Z,9.00
2023-02-08T11:39:42.368Z,9.20
2023-02-08T11:42:21.795Z,8.57
2023-02-08T11:44:55.054Z,7.97
2023-02-08T11:47:27.732Z,8.33
2023-02-08T11:49:57.901Z,8.63
2023-02-08T11:52:28.044Z,8.90
2023-02-08T11:54:57.870Z,8.57
2023-02-08T11:57:27.927Z,7.37
2023-02-08T12:00:19.309Z,8.67
2023-02-08T12:02:47.567Z,8.23
2023-02-08T12:05:20.188Z,7.80
2023-02-08T12:08:00.975Z,7.10
2023-02-08T12:10:49.027Z,8.60
2023-02-08T12:13:35.123Z,8.20
2023-02-08T12:16:13.604Z,7.60
2023-02-08T12:18:53.233Z,8.07
2023-02-08T12:21:23.834Z,7.77
2023-02-08T12:23:56.051Z,8.77
2023-02-08T12:26:33.976Z,9.50
2023-02-08T12:29:17.706Z,8.70
2023-02-08T12:32:18.421Z,11.73
2023-02-08T12:34:57.002Z,7.83
2023-02-08T12:37:54.002Z,8.57
2023-02-08T12:40:49.949Z,7.90
2023-02-08T12:43:27.134Z,7.63
2023-02-08T12:46:12.768Z,7.00
2023-02-08T12:49:06.671Z,7.33
2023-02-08T12:51:44.206Z,7.10
2023-02-08T12:54:16.096Z,7.27
2023-02-08T12:57:00.373Z,8.07
2023-02-08T12:59:37.976Z,7.40
2023-02-08T13:02:14.929Z,7.65
2023-02-08T13:04:47.327Z,8.50
2023-02-08T13:07:19.729Z,7.00
2023-02-08T13:09:51.977Z,6.40
2023-02-08T13:12:25.405Z,5.70
2023-02-08T13:14:57.321Z,6.70
2023-02-08T13:17:28.373Z,6.80
2023-02-08T13:20:01.388Z,7.10
2023-02-08T13:22:33.526Z,5.23
2023-02-08T13:25:07.871Z,5.80
2023-02-08T13:27:36.367Z,5.83
2023-02-08T13:30:08.487Z,6.70
2023-02-08T13:32:44.034Z,5.63
2023-02-08T13:35:21.485Z,7.10
2023-02-08T13:37:51.944Z,6.10
2023-02-08T13:40:21.914Z,7.07
2023-02-08T13:42:51.704Z,5.27
2023-02-08T13:45:31.164Z,5.40
2023-02-08T13:48:01.200Z,5.43
2023-02-08T13:50:59.094Z,6.00
2023-02-08T13:54:05.956Z,5.60
2023-02-08T13:56:45.435Z,5.60
2023-02-08T13:59:29.077Z,4.93
2023-02-08T14:02:34.318Z,5.00
2023-02-08T14:05:45.346Z,4.27
2023-02-08T14:08:22.686Z,6.07
2023-02-08T14:11:04.944Z,5.03
2023-02-08T14:13:34.134Z,5.00
2023-02-08T14:16:31.308Z,5.20
2023-02-08T14:19:02.930Z,5.33
2023-02-08T14:21:35.934Z,6.00
2023-02-08T14:24:08.393Z,5.23
2023-02-08T14:26:39.282Z,4.43
2023-02-08T14:29:08.067Z,5.97
2023-02-08T14:31:45.343Z,4.43
2023-02-08T14:34:34.361Z,4.57
2023-02-08T14:37:10.560Z,4.23
2023-02-08T14:39:40.289Z,4.20
2023-02-08T14:42:14.336Z,4.80
2023-02-08T14:44:57.795Z,4.50
2023-02-08T14:48:05.420Z,5.70
2023-02-08T14:50:40.361Z,4.97
2023-02-08T14:53:20.178Z,5.40
2023-02-08T14:55:56.971Z,5.70
2023-02-08T14:58:30.950Z,4.77
2023-02-08T15:01:02.077Z,5.10
2023-02-08T15:03:32.674Z,5.93
2023-02-08T15:06:33.926Z,5.50
2023-02-08T15:09:05.624Z,4.27
2023-02-08T15:11:35.975Z,5.70
2023-02-08T15:14:05.981Z,4.47
2023-02-08T15:16:36.210Z,5.57
2023-02-08T15:19:11.148Z,5.33
2023-02-08T15:21:41.015Z,5.00
2023-02-08T15:24:16.185Z,5.10
2023-02-08T15:26:50.348Z,5.83
2023-02-08T15:29:30.084Z,5.97
2023-02-08T15:32:07.916Z,6.40
2023-02-08T15:34:36.066Z,6.03
2023-02-08T15:37:07.081Z,5.90
2023-02-08T15:39:38.563Z,5.87
2023-02-08T15:42:17.297Z,5.90
2023-02-08T15:44:45.602Z,6.23
2023-02-08T15:47:17.515Z,4.90
2023-02-08T15:49:48.980Z,6.40
2023-02-08T15:52:18.828Z,5.80
2023-02-08T15:54:47.153Z,7.23
2023-02-08T15:57:25.732Z,6.43
2023-02-08T15:59:53.957Z,7.70
2023-02-08T16:02:28.970Z,5.80
2023-02-08T16:04:57.126Z,6.90
2023-02-08T16:07:31.153Z,6.00
2023-02-08T16:09:59.391Z,6.97
2023-02-08T16:12:29.318Z,6.23
2023-02-08T16:14:57.426Z,6.30
2023-02-08T16:17:38.427Z,6.67
2023-02-08T16:20:30.091Z,7.87
2023-02-08T16:23:00.575Z,7.30
2023-02-08T16:25:38.522Z,6.30
2023-02-08T16:28:25.995Z,6.70
2023-02-08T16:30:54.252Z,7.50
2023-02-08T16:33:22.199Z,6.70
2023-02-08T16:35:51.413Z,6.33
2023-02-08T16:38:24.016Z,7.23
2023-02-08T16:40:53.958Z,7.30
2023-02-08T16:43:27.076Z,6.53
2023-02-08T16:46:21.149Z,6.37
2023-02-08T16:48:55.864Z,6.17
2023-02-08T16:51:26.308Z,6.73
2023-02-08T16:53:58.057Z,6.57
2023-02-08T16:56:28.961Z,7.17
2023-02-08T16:58:58.490Z,6.53
2023-02-08T17:01:28.541Z,6.43
2023-02-08T17:03:56.652Z,7.27
2023-02-08T17:06:33.166Z,6.80
2023-02-08T17:09:04.818Z,6.77
2023-02-08T17:11:34.329Z,8.07
2023-02-08T17:14:07.810Z,7.77
2023-02-08T17:16:36.556Z,7.03
2023-02-08T17:19:08.544Z,7.67
2023-02-08T17:21:42.366Z,6.63
2023-02-08T17:24:12.025Z,6.77
2023-02-08T17:26:42.174Z,7.73
2023-02-08T17:29:12.278Z,7.20
2023-02-08T17:31:44.643Z,8.80
2023-02-08T17:34:15.295Z,8.20
2023-02-08T17:36:43.075Z,8.73
2023-02-08T17:39:17.872Z,8.40
2023-02-08T17:41:45.674Z,7.73
2023-02-08T17:44:19.116Z,7.97
2023-02-08T17:46:48.240Z,8.00
2023-02-08T17:49:16.316Z,8.63
2023-02-08T17:51:45.313Z,9.70
2023-02-08T17:54:14.357Z,10.00
2023-02-08T17:56:42.165Z,8.87
2023-02-08T17:59:10.000Z,8.07
2023-02-08T18:01:41.495Z,9.77
2023-02-08T18:04:14.232Z,9.80
2023-02-08T18:06:42.104Z,8.53
2023-02-08T18:09:09.902Z,9.23
2023-02-08T18:11:41.392Z,10.07
2023-02-08T18:14:21.792Z,8.90
2023-02-08T18:16:54.803Z,10.07
2023-02-08T18:19:22.842Z,9.23
2023-02-08T18:21:50.924Z,9.77
2023-02-08T18:24:18.909Z,7.93
2023-02-08T18:26:49.539Z,8.10
2023-02-08T18:29:17.284Z,9.60
2023-02-08T18:31:45.202Z,8.53
2023-02-08T18:34:16.338Z,9.00
2023-02-08T18:36:44.286Z,9.27
2023-02-08T18:39:14.252Z,8.80
2023-02-08T18:41:44.730Z,10.00
2023-02-08T18:44:14.926Z,9.03
2023-02-08T18:46:47.701Z,9.60
2023-02-08T18:49:17.062Z,10.13
2023-02-08T18:51:46.940Z,10.80
2023-02-08T18:54:19.296Z,8.93
2023-02-08T18:56:47.215Z,9.90
2023-02-08T18:59:18.895Z,9.63
2023-02-08T19:01:49.516Z,9.40
2023-02-08T19:04:21.549Z,11.73
2023-02-08T19:06:49.471Z,11.53
2023-02-08T19:09:17.424Z,10.93
2023-02-08T19:11:45.628Z,9.53
2023-02-08T19:14:15.495Z,9.50
2023-02-08T19:16:44.080Z,8.37
2023-02-08T19:19:13.126Z,10.63
2023-02-08T19:21:42.768Z,10.83
2023-02-08T19:24:15.042Z,9.77
2023-02-08T19:26:43.909Z,10.07
2023-02-08T19:29:14.000Z,10.00
2023-02-08T19:31:42.470Z,8.50
2023-02-08T19:34:14.787Z,9.53
2023-02-08T19:36:49.282Z,10.13
2023-02-08T19:39:19.062Z,10.13
2023-02-08T19:41:47.301Z,9.83
2023-02-08T19:44:17.381Z,10.13
2023-02-08T19:46:50.304Z,10.30
2023-02-08T19:49:21.806Z,10.80
2023-02-08T19:51:51.417Z,11.03
2023-02-08T19:54:20.551Z,9.50
2023-02-08T19:56:50.388Z,11.30
2023-02-08T19:59:24.833Z,9.30
2023-02-08T20:01:59.527Z,9.93
2023-02-08T20:04:32.505Z,10.43
2023-02-08T20:07:01.678Z,10.33
2023-02-08T20:09:29.571Z,10.30
2023-02-08T20:12:00.465Z,8.97
2023-02-08T20:14:31.242Z,9.40
2023-02-08T20:16:59.255Z,10.07
2023-02-08T20:19:39.331Z,9.23
2023-02-08T20:22:09.214Z,9.63
2023-02-08T20:24:44.873Z,10.50
2023-02-08T20:27:13.930Z,9.57
2023-02-08T20:29:45.689Z,11.07
2023-02-08T20:32:13.619Z,8.33
2023-02-08T20:34:53.932Z,10.90
2023-02-08T20:37:30.335Z,9.97
2023-02-08T20:40:03.715Z,11.60
2023-02-08T20:42:33.691Z,9.30
2023-02-08T20:45:06.866Z,11.30
2023-02-08T20:47:45.956Z,9.33
2023-02-08T20:50:19.117Z,11.33
2023-02-08T20:52:49.203Z,9.97
2023-02-08T20:55:20.046Z,9.47
2023-02-08T20:57:47.970Z,10.10
2023-02-08T21:00:19.402Z,11.00
2023-02-08T21:02:52.295Z,9.23
2023-02-08T21:05:27.491Z,11.70
2023-02-08T21:07:56.729Z,11.00
2023-02-08T21:10:24.835Z,10.63
2023-02-08T21:12:52.662Z,11.13
2023-02-08T21:15:20.497Z,10.60
2023-02-08T21:17:50.700Z,11.30
2023-02-08T21:20:20.684Z,11.20
2023-02-08T21:22:53.478Z,12.40
2023-02-08T21:25:27.737Z,13.90
2023-02-08T21:27:57.807Z,14.13
2023-02-08T21:30:27.847Z,11.80
2023-02-08T21:32:55.649Z,11.33
2023-02-08T21:35:25.651Z,13.23
2023-02-08T21:37:56.000Z,10.60
2023-02-08T21:40:26.328Z,12.90
2023-02-08T21:42:54.184Z,10.97
2023-02-08T21:45:24.738Z,10.80
2023-02-08T21:47:52.609Z,12.70
2023-02-08T21:50:37.944Z,9.93
2023-02-08T21:53:28.923Z,10.17
2023-02-08T21:56:04.560Z,11.90
2023-02-08T21:58:32.452Z,12.50
2023-02-08T22:01:02.255Z,10.70
2023-02-08T22:03:34.452Z,11.30
2023-02-08T22:06:02.281Z,10.13
2023-02-08T22:08:32.932Z,10.30
2023-02-08T22:11:08.981Z,11.17
2023-02-08T22:13:36.863Z,9.20
2023-02-08T22:16:08.981Z,9.80
2023-02-08T22:18:37.433Z,10.10
2023-02-08T22:21:05.984Z,9.37
2023-02-08T22:23:35.942Z,11.63
2023-02-08T22:26:09.885Z,11.90
2023-02-08T22:28:38.278Z,9.53
2023-02-08T22:31:15.952Z,10.63
2023-02-08T22:33:44.208Z,10.13
2023-02-08T22:36:12.928Z,9.57
2023-02-08T22:38:43.863Z,10.93
2023-02-08T22:41:16.507Z,10.47
2023-02-08T22:43:50.255Z,10.90
2023-02-08T22:46:20.694Z,11.43
2023-02-08T22:48:51.635Z,11.80
2023-02-08T22:51:26.734Z,10.70
2023-02-08T22:53:57.245Z,11.20
2023-02-08T22:56:34.496Z,10.43
2023-02-08T22:59:03.455Z,10.10
2023-02-08T23:01:31.674Z,10.43
2023-02-08T23:04:01.563Z,10.03
2023-02-08T23:06:29.435Z,9.27
2023-02-08T23:08:58.879Z,8.67
2023-02-08T23:11:32.122Z,10.17
2023-02-08T23:14:05.055Z,10.27
2023-02-08T23:16:33.008Z,12.40
2023-02-08T23:19:01.108Z,9.03
2023-02-08T23:21:31.936Z,10.20
2023-02-08T23:24:02.551Z,9.10
2023-02-08T23:26:40.152Z,11.90
2023-02-08T23:29:08.351Z,12.60
2023-02-08T23:31:40.105Z,10.40
2023-02-08T23:34:08.420Z,10.97
2023-02-08T23:36:38.639Z,10.20
2023-02-08T23:39:06.926Z,10.30
2023-02-08T23:41:35.353Z,10.10
2023-02-08T23:44:07.630Z,9.63
2023-02-08T23:46:38.129Z,11.17
2023-02-08T23:49:08.746Z,10.83
2023-02-08T23:51:39.466Z,10.63
2023-02-08T23:54:09.214Z,11.67
2023-02-08T23:56:37.016Z,11.57
2023-02-08T23:59:08.259Z,11.93
